Time;durP1;ratioP1;P1;durP2;ratioP2;P2;SDS_P1;SDS_P2;PMS_P1;PMS_P2;Temp;Humidity;BMP_temperature;BMP_pressure;BME280_temperature;BME280_humidity;BME280_pressure;Samples;Min_cycle;Max_cycle;Signal;HPM_P1;HPM_P2
2023/07/20 05:11:07;;;;;;;7.53;3.85;;;;;;;25.77;54.34;99851.59;5602046;31;208847;-62
2023/07/20 05:14:10;;;;;;;5.72;3.10;;;;;;;25.77;54.34;99851.59;5576855;31;33344;-62
2023/07/20 05:17:12;;;;;;;6.55;3.87;;;;;;;25.34;60.19;99851.66;5564084;32;33144;-62
2023/07/20 05:20:15;;;;;;;7.55;4.05;;;;;;;25.45;55.67;99855.16;5564170;32;34429;-63
2023/07/20 05:23:19;;;;;;;8.65;3.62;;;;;;;25.53;55.86;99847.72;5564384;32;34260;-63
2023/07/20 05:26:22;;;;;;;6.27;3.67;;;;;;;25.67;54.94;99860.62;5564175;32;35073;-63
2023/07/20 05:29:25;;;;;;;6.37;3.45;;;;;;;25.67;53.20;99855.16;5564089;32;34357;-62
2023/07/20 05:32:28;;;;;;;8.85;3.78;;;;;;;25.80;51.88;99861.00;5567748;32;34242;-62
2023/07/20 05:35:30;;;;;;;15.50;3.50;;;;;;;25.91;52.11;99859.81;5583447;31;33527;-63
2023/07/20 05:38:33;;;;;;;6.55;3.40;;;;;;;26.04;54.15;99854.69;5583478;32;33680;-63
2023/07/20 05:41:35;;;;;;;7.12;4.05;;;;;;;26.10;51.77;99855.06;5583278;31;33773;-62
2023/07/20 05:44:37;;;;;;;7.18;3.75;;;;;;;26.16;51.55;99867.22;5583541;31;33078;-63
2023/07/20 05:47:42;;;;;;;6.30;3.75;;;;;;;26.37;50.08;99869.06;5583354;32;33531;-63
2023/07/20 05:50:45;;;;;;;7.10;4.22;;;;;;;26.44;49.76;99869.81;5583177;32;33555;-63
2023/07/20 05:53:47;;;;;;;6.37;4.00;;;;;;;26.46;49.92;99872.94;5583324;31;33645;-63
2023/07/20 05:56:50;;;;;;;5.10;4.00;;;;;;;26.57;49.51;99872.91;5583628;32;33325;-63
2023/07/20 05:59:52;;;;;;;7.93;3.90;;;;;;;26.60;48.95;99863.87;5583304;31;33851;-63
2023/07/20 06:02:54;;;;;;;6.22;4.28;;;;;;;26.55;50.99;99871.75;5583259;32;33596;-62
2023/07/20 06:06:02;;;;;;;6.75;4.50;;;;;;;26.67;46.55;99865.81;5583100;31;33657;-61
2023/07/20 06:09:05;;;;;;;8.07;4.37;;;;;;;26.81;47.42;99865.69;5583051;31;33323;-62
2023/07/20 06:12:08;;;;;;;11.85;4.68;;;;;;;26.78;46.53;99866.50;5583133;31;34377;-62
2023/07/20 06:15:32;;;;;;;9.57;4.30;;;;;;;26.83;45.48;99870.81;5583181;31;34189;-61
2023/07/20 06:18:37;;;;;;;6.95;3.92;;;;;;;26.96;45.61;99871.91;5583016;32;33144;-61
2023/07/20 06:21:40;;;;;;;7.00;3.80;;;;;;;27.17;50.08;99870.97;5573673;32;34218;-62
2023/07/20 06:24:43;;;;;;;8.85;4.05;;;;;;;27.23;46.60;99874.09;5570319;32;33981;-61
2023/07/20 06:27:45;;;;;;;11.27;4.30;;;;;;;27.32;45.95;99888.16;5569840;32;33591;-61
2023/07/20 06:30:47;;;;;;;12.68;4.37;;;;;;;27.35;48.75;99885.38;5570094;32;34396;-62
2023/07/20 06:33:52;;;;;;;8.43;4.12;;;;;;;27.51;45.82;99881.31;5569814;32;34191;-62
2023/07/20 06:36:55;;;;;;;6.80;4.12;;;;;;;27.63;47.90;99889.84;5569380;32;33564;-62
2023/07/20 06:39:57;;;;;;;9.30;4.35;;;;;;;27.58;43.32;99892.25;5569784;32;34457;-62
2023/07/20 06:43:03;;;;;;;6.30;3.50;;;;;;;27.59;43.76;99897.34;5569845;32;34307;-62
2023/07/20 06:46:08;;;;;;;8.18;3.87;;;;;;;27.65;44.11;99894.94;5569656;32;34311;-61
2023/07/20 06:49:24;;;;;;;9.77;4.03;;;;;;;27.83;43.37;99897.56;5569888;32;34260;-62
2023/07/20 06:52:26;;;;;;;7.05;3.97;;;;;;;27.79;42.69;99907.81;5569812;32;34309;-61
2023/07/20 06:55:29;;;;;;;6.15;3.62;;;;;;;27.85;43.12;99917.22;5569825;32;34301;-62
2023/07/20 06:58:36;;;;;;;8.20;4.12;;;;;;;27.86;43.01;99924.28;5569572;32;33679;-61
2023/07/20 07:01:39;;;;;;;7.80;4.10;;;;;;;27.80;42.57;99920.41;5569681;32;33634;-61
2023/07/20 07:04:42;;;;;;;9.68;3.95;;;;;;;27.86;45.06;99924.28;5569554;32;34269;-61
2023/07/20 07:07:44;;;;;;;9.05;4.20;;;;;;;27.80;43.76;99928.66;5569404;32;34493;-62
2023/07/20 07:10:46;;;;;;;9.20;3.60;;;;;;;27.73;43.34;99929.47;5569571;32;34202;-62
2023/07/20 07:13:51;;;;;;;7.95;3.87;;;;;;;27.68;42.64;99932.66;5569581;31;34260;-61
2023/07/20 07:16:53;;;;;;;7.82;3.72;;;;;;;27.54;41.81;99939.09;5569803;32;33678;-60
2023/07/20 07:19:59;;;;;;;8.80;3.53;;;;;;;27.61;42.32;99936.25;5569736;32;33627;-60
2023/07/20 07:23:01;;;;;;;5.65;4.12;;;;;;;27.80;41.40;99956.97;5569962;32;33580;-60
2023/07/20 07:26:04;;;;;;;10.10;3.35;;;;;;;27.50;41.53;99943.06;5569537;32;34342;-61
2023/07/20 07:29:06;;;;;;;6.95;3.70;;;;;;;27.57;42.44;99932.75;5569548;32;33608;-60
2023/07/20 07:32:10;;;;;;;7.65;3.83;;;;;;;27.69;42.89;99936.22;5568387;32;33667;-60
2023/07/20 07:35:12;;;;;;;6.85;3.62;;;;;;;27.59;41.80;99937.88;5569442;32;34223;-60
2023/07/20 07:38:15;;;;;;;7.30;3.45;;;;;;;27.64;41.70;99938.19;5569331;32;33825;-60
2023/07/20 07:41:37;;;;;;;5.35;3.67;;;;;;;27.70;41.13;99938.56;5569295;32;33663;-61
2023/07/20 07:44:39;;;;;;;6.25;3.58;;;;;;;27.83;43.66;99949.88;5569524;32;33999;-60
2023/07/20 07:47:41;;;;;;;6.03;3.28;;;;;;;27.86;41.27;99949.84;5569216;32;33748;-60
2023/07/20 07:50:44;;;;;;;12.27;3.67;;;;;;;27.96;42.08;99947.41;5569382;32;34247;-60
2023/07/20 07:53:46;;;;;;;9.88;3.83;;;;;;;27.89;41.26;99951.00;5569417;32;34315;-60
2023/07/20 07:56:51;;;;;;;6.20;3.80;;;;;;;27.99;42.91;99949.34;5569552;32;34296;-60
2023/07/20 07:59:53;;;;;;;5.65;3.20;;;;;;;28.11;42.13;99937.78;5569380;32;34262;-60
2023/07/20 08:02:55;;;;;;;5.72;3.65;;;;;;;28.14;40.43;99936.19;5569314;32;34396;-60
2023/07/20 08:05:59;;;;;;;9.57;3.40;;;;;;;28.11;40.35;99951.56;5569012;32;33606;-60
2023/07/20 08:09:03;;;;;;;7.30;3.17;;;;;;;28.07;40.62;99940.56;5569142;32;33674;-60
2023/07/20 08:12:06;;;;;;;5.57;3.10;;;;;;;28.04;39.40;99952.41;5569194;32;34169;-61
2023/07/20 08:15:10;;;;;;;4.93;3.20;;;;;;;28.12;40.42;99944.88;5569159;32;33680;-60
2023/07/20 08:18:13;;;;;;;;;;;;;;;28.23;41.49;99950.25;5569499;32;34232;-60
2023/07/20 08:21:15;;;;;;;17.35;4.03;;;;;;;28.20;39.91;99951.84;5569266;32;33911;-60
2023/07/20 08:24:18;;;;;;;12.57;3.45;;;;;;;28.17;42.02;99947.16;5569001;32;33692;-61
2023/07/20 08:27:20;;;;;;;7.60;3.10;;;;;;;28.28;41.03;99947.84;5569009;32;33623;-59
2023/07/20 08:30:25;;;;;;;8.77;3.30;;;;;;;28.45;40.91;99951.59;5568811;32;34282;-59
2023/07/20 08:33:29;;;;;;;5.50;3.47;;;;;;;28.57;40.38;99944.75;5568937;32;33862;-60
2023/07/20 08:36:32;;;;;;;7.73;3.10;;;;;;;28.51;39.93;99955.47;5568883;32;33708;-59
2023/07/20 08:39:34;;;;;;;6.78;3.55;;;;;;;28.29;39.27;99954.13;5568855;32;33732;-59
2023/07/20 08:42:38;;;;;;;5.90;2.97;;;;;;;28.01;39.21;99949.69;5568872;32;33514;-59
2023/07/20 08:45:41;;;;;;;6.78;3.55;;;;;;;28.16;40.60;99939.31;5568289;32;33697;-59
2023/07/20 08:48:44;;;;;;;5.78;3.10;;;;;;;28.32;39.52;99953.31;5567571;32;33664;-60
2023/07/20 08:51:48;;;;;;;6.62;3.22;;;;;;;28.46;39.62;99961.44;5568647;32;34200;-60
2023/07/20 08:54:53;;;;;;;4.10;3.10;;;;;;;28.43;39.22;99956.75;5568895;32;33385;-60
2023/07/20 08:57:57;;;;;;;7.75;3.37;;;;;;;28.44;39.20;99952.78;5568391;32;33685;-59
2023/07/20 09:01:00;;;;;;;6.50;3.13;;;;;;;28.40;38.95;99954.03;5568662;32;33624;-59
2023/07/20 09:04:03;;;;;;;5.75;2.97;;;;;;;28.16;39.76;99962.16;5566390;32;33747;-59
2023/07/20 09:07:06;;;;;;;9.02;3.22;;;;;;;27.94;39.68;99969.06;5568632;32;34279;-59
2023/07/20 09:10:10;;;;;;;18.65;3.85;;;;;;;27.52;38.17;99977.25;5567822;32;33632;-59
2023/07/20 09:13:16;;;;;;;8.00;3.00;;;;;;;27.41;38.30;99974.56;5568452;32;33673;-59
2023/07/20 09:16:18;;;;;;;3.80;2.45;;;;;;;27.59;38.50;99976.44;5568215;32;33592;-59
2023/07/20 09:19:22;;;;;;;9.90;3.03;;;;;;;27.74;38.31;99977.06;5568416;32;33668;-59
2023/07/20 09:22:31;;;;;;;5.43;2.85;;;;;;;27.89;39.23;99978.56;5568188;32;33524;-59
2023/07/20 09:25:33;;;;;;;4.72;2.50;;;;;;;27.85;38.19;99992.34;5568125;32;33553;-60
2023/07/20 09:28:43;;;;;;;10.90;2.60;;;;;;;27.97;38.04;99988.31;5568187;32;33680;-59
2023/07/20 09:32:03;;;;;;;5.03;2.60;;;;;;;27.96;37.85;99972.97;5567837;32;33751;-59
2023/07/20 09:35:06;;;;;;;10.60;3.20;;;;;;;28.02;38.04;99984.34;5568084;32;35273;-59
2023/07/20 09:38:14;;;;;;;4.18;2.75;;;;;;;28.07;38.27;99987.41;5560059;32;33615;-63
2023/07/20 09:41:20;;;;;;;11.73;3.20;;;;;;;28.13;38.12;99973.22;5548526;32;34296;-62
2023/07/20 09:44:28;;;;;;;7.70;4.57;;;;;;;28.20;38.36;99971.16;5548325;32;33200;-62
2023/07/20 09:47:36;;;;;;;6.60;2.42;;;;;;;28.18;38.57;99975.50;5548095;32;34226;-62
2023/07/20 09:50:49;;;;;;;7.47;3.20;;;;;;;28.29;37.97;99970.66;5548245;32;33159;-62
2023/07/20 09:53:54;;;;;;;6.53;2.70;;;;;;;28.39;37.96;99972.56;5547924;32;33715;-62
2023/07/20 09:56:56;;;;;;;6.68;2.85;;;;;;;28.52;38.93;99968.06;5550061;32;33546;-63
2023/07/20 09:59:59;;;;;;;11.77;3.00;;;;;;;28.67;37.76;99963.13;5550366;32;33683;-63
2023/07/20 10:03:28;;;;;;;6.85;3.75;;;;;;;28.62;36.96;99973.88;5551041;32;34359;-63
2023/07/20 10:06:35;;;;;;;4.82;2.75;;;;;;;28.45;37.52;99981.94;5550739;32;34063;-63
2023/07/20 10:09:40;;;;;;;7.93;3.22;;;;;;;28.40;37.75;99981.59;5550510;32;33670;-63
2023/07/20 10:12:46;;;;;;;7.50;2.72;;;;;;;28.36;38.48;99994.63;5550544;32;34455;-62
2023/07/20 10:16:03;;;;;;;8.40;3.12;;;;;;;28.48;38.05;99991.38;5568218;31;34387;-62
2023/07/20 10:19:11;;;;;;;8.45;3.17;;;;;;;28.66;37.81;99997.44;5570000;32;34071;-62
2023/07/20 10:22:25;;;;;;;8.40;2.85;;;;;;;28.75;38.18;99991.44;5569753;32;34318;-63
2023/07/20 10:25:28;;;;;;;6.55;3.10;;;;;;;28.73;38.34;99999.31;5569750;32;34438;-63
2023/07/20 10:28:31;;;;;;;4.55;2.95;;;;;;;28.68;38.05;99999.78;5569812;32;34482;-63
2023/07/20 10:31:35;;;;;;;7.35;3.08;;;;;;;28.53;38.97;100001.94;5569699;32;33298;-62
2023/07/20 10:34:37;;;;;;;6.32;3.05;;;;;;;28.48;38.87;100000.41;5569856;32;34053;-63
2023/07/20 10:37:53;;;;;;;10.90;3.17;;;;;;;28.59;40.66;99994.00;5569639;32;33704;-63
2023/07/20 10:40:56;;;;;;;10.20;3.62;;;;;;;28.66;39.08;99996.66;5569590;32;34327;-62
2023/07/20 10:44:01;;;;;;;4.43;2.95;;;;;;;28.52;39.30;100003.91;5569319;32;34238;-62
2023/07/20 10:47:10;;;;;;;6.07;3.20;;;;;;;28.52;39.25;100000.37;5569545;32;33717;-60
2023/07/20 10:50:13;;;;;;;6.03;2.83;;;;;;;28.54;38.98;99998.78;5569673;32;33730;-60
2023/07/20 10:53:18;;;;;;;8.27;3.50;;;;;;;28.43;39.13;100000.84;5569740;32;33635;-60
2023/07/20 10:56:22;;;;;;;8.27;3.20;;;;;;;28.43;39.48;99989.81;5569311;32;34705;-60
2023/07/20 10:59:25;;;;;;;7.63;2.77;;;;;;;28.60;40.13;99990.03;5569652;32;33601;-60
2023/07/20 11:02:27;;;;;;;4.30;2.42;;;;;;;28.80;39.60;99988.19;5569451;32;33237;-61
2023/07/20 11:05:37;;;;;;;8.23;2.97;;;;;;;28.97;39.16;99989.97;5569698;32;33619;-60
2023/07/20 11:08:43;;;;;;;12.43;2.90;;;;;;;29.04;37.71;100008.44;5568178;32;34215;-60
2023/07/20 11:11:48;;;;;;;5.60;2.85;;;;;;;28.90;38.05;99992.78;5569267;32;33611;-60
2023/07/20 11:14:56;;;;;;;12.70;3.40;;;;;;;28.72;37.43;99984.75;5569199;32;33644;-60
2023/07/20 11:18:12;;;;;;;5.75;2.53;;;;;;;28.75;37.87;99986.69;5569066;32;34314;-60
2023/07/20 11:21:15;;;;;;;6.25;2.83;;;;;;;28.75;37.48;99981.19;5569180;32;33604;-60
2023/07/20 11:24:18;;;;;;;3.83;2.72;;;;;;;28.60;38.12;99977.03;5569184;32;34420;-60
2023/07/20 11:27:22;;;;;;;7.62;2.92;;;;;;;28.42;38.22;99982.75;5569337;32;33628;-60
2023/07/20 11:30:25;;;;;;;6.57;2.92;;;;;;;28.55;38.66;99985.75;5569307;32;33754;-60
2023/07/20 11:33:28;;;;;;;6.50;2.70;;;;;;;28.63;38.18;99980.94;5569376;32;33683;-60
2023/07/20 11:36:31;;;;;;;10.50;3.05;;;;;;;28.67;37.58;99971.41;5569321;32;34382;-60
2023/07/20 11:39:36;;;;;;;;;;;;;;;28.82;36.99;99985.81;5569751;32;33717;-61
2023/07/20 11:42:38;;;;;;;6.28;2.20;;;;;;;28.70;36.07;99981.62;5569765;32;33847;-60
2023/07/20 11:45:45;;;;;;;5.78;2.42;;;;;;;28.78;36.19;99982.31;5569206;32;34323;-60
2023/07/20 11:48:47;;;;;;;3.70;2.47;;;;;;;28.87;35.98;99979.03;5568955;32;33578;-60
2023/07/20 11:51:50;;;;;;;5.22;2.33;;;;;;;28.99;35.70;99984.78;5568478;32;33663;-60
2023/07/20 11:54:53;;;;;;;5.20;2.20;;;;;;;28.99;35.66;99995.03;5568791;32;34277;-60
2023/07/20 11:58:07;;;;;;;11.07;2.70;;;;;;;28.88;35.13;99991.66;5568757;32;33777;-60
2023/07/20 12:01:11;;;;;;;6.07;2.40;;;;;;;28.95;35.04;99980.53;5568941;32;34287;-60
2023/07/20 12:04:13;;;;;;;8.15;2.67;;;;;;;28.94;35.64;99960.44;5568773;32;33588;-60
2023/07/20 12:07:16;;;;;;;6.53;2.50;;;;;;;28.89;34.64;99968.38;5568863;32;34323;-61
2023/07/20 12:10:26;;;;;;;6.57;2.45;;;;;;;28.92;35.62;99976.63;5568473;32;33602;-61
2023/07/20 12:13:40;;;;;;;4.15;2.45;;;;;;;29.01;35.62;99968.63;5568668;32;33814;-60
2023/07/20 12:16:42;;;;;;;4.47;2.30;;;;;;;29.10;35.06;99961.81;5569289;32;34328;-60
2023/07/20 12:19:45;;;;;;;6.43;2.47;;;;;;;29.09;34.92;99963.78;5568293;32;33550;-61
2023/07/20 12:22:48;;;;;;;9.25;3.22;;;;;;;29.11;34.57;99957.88;5569222;32;33629;-60
2023/07/20 12:25:53;;;;;;;6.22;2.55;;;;;;;29.22;35.14;99961.25;5568925;32;34331;-60
2023/07/20 12:28:56;;;;;;;4.43;2.40;;;;;;;29.25;34.65;99957.66;5569237;32;33682;-60
2023/07/20 12:31:58;;;;;;;5.62;2.50;;;;;;;29.31;35.22;99964.25;5568537;32;33664;-61
2023/07/20 12:35:01;;;;;;;8.15;3.08;;;;;;;29.34;35.31;99968.94;5568140;32;33773;-60
2023/07/20 12:38:03;;;;;;;3.92;2.60;;;;;;;29.35;34.99;99978.00;5568805;32;33612;-60
2023/07/20 12:41:05;;;;;;;5.68;2.47;;;;;;;29.25;35.17;99963.16;5568496;32;33586;-60
2023/07/20 12:44:08;;;;;;;5.80;2.83;;;;;;;29.15;35.58;99958.59;5568483;32;34449;-60
2023/07/20 12:47:10;;;;;;;4.57;2.20;;;;;;;29.16;34.26;99963.69;5568911;32;33648;-60
2023/07/20 12:50:13;;;;;;;7.03;2.67;;;;;;;29.21;33.12;99951.41;5561560;32;33831;-60
2023/07/20 12:53:16;;;;;;;8.82;2.67;;;;;;;29.21;32.67;99952.19;5549138;32;33384;-60
2023/07/20 12:56:18;;;;;;;3.92;2.20;;;;;;;29.18;33.17;99944.72;5549037;32;33801;-60
2023/07/20 12:59:24;;;;;;;6.30;2.70;;;;;;;29.26;33.75;99948.16;5549116;32;34328;-60
2023/07/20 13:02:26;;;;;;;14.82;2.67;;;;;;;29.28;33.25;99940.25;5548568;32;33983;-60
2023/07/20 13:05:29;;;;;;;6.80;2.20;;;;;;;29.34;32.50;99938.56;5548877;32;33641;-60
2023/07/20 13:08:34;;;;;;;;;;;;;;;29.38;32.21;99941.28;5549020;32;34279;-62
2023/07/20 13:11:36;;;;;;;5.18;2.25;;;;;;;29.29;32.63;99960.34;5546575;32;34010;-62
2023/07/20 13:14:39;;;;;;;6.35;2.50;;;;;;;29.19;32.67;99967.59;5547686;32;33193;-62
2023/07/20 13:17:41;;;;;;;4.50;2.40;;;;;;;29.21;33.72;99965.22;5548814;32;33627;-62
2023/07/20 13:20:43;;;;;;;6.40;2.58;;;;;;;29.23;33.17;99949.75;5548906;32;34278;-63
2023/07/20 13:23:46;;;;;;;5.45;2.50;;;;;;;29.36;34.00;99949.97;5548662;32;33832;-62
2023/07/20 13:26:48;;;;;;;4.05;2.62;;;;;;;29.38;32.61;99944.03;5548816;32;33625;-62
2023/07/20 13:29:51;;;;;;;4.45;2.60;;;;;;;29.38;32.44;99955.87;5548737;32;33902;-63
2023/07/20 13:32:55;;;;;;;7.03;2.40;;;;;;;29.39;32.54;99949.13;5551218;32;33720;-62
2023/07/20 13:35:57;;;;;;;6.53;2.67;;;;;;;29.34;33.15;99944.09;5551108;32;33569;-63
2023/07/20 13:38:59;;;;;;;3.72;2.25;;;;;;;29.38;33.47;99950.34;5550383;32;34063;-62
2023/07/20 13:42:04;;;;;;;12.43;2.72;;;;;;;29.39;33.28;99942.84;5551016;32;34515;-62
2023/07/20 13:45:07;;;;;;;9.90;2.28;;;;;;;29.41;32.05;99941.22;5551179;32;33814;-62
2023/07/20 13:48:10;;;;;;;2.97;2.35;;;;;;;29.46;31.49;99943.50;5550962;32;34446;-62
2023/07/20 13:51:12;;;;;;;8.43;2.35;;;;;;;29.49;31.61;99939.13;5551045;32;34320;-63
2023/07/20 13:54:15;;;;;;;5.93;2.47;;;;;;;29.48;31.39;99943.09;5551149;32;33741;-62
2023/07/20 13:57:20;;;;;;;;;;;;;;;29.43;31.57;99940.78;5551421;32;33606;-63
2023/07/20 14:00:26;;;;;;;12.82;2.35;;;;;;;29.39;31.33;99937.31;5550923;32;34041;-63
2023/07/20 14:03:29;;;;;;;3.08;2.22;;;;;;;29.37;33.23;99943.25;5550912;32;33672;-62
2023/07/20 14:06:33;;;;;;;4.97;2.20;;;;;;;29.32;31.92;99946.50;5550871;32;34287;-62
2023/07/20 14:09:37;;;;;;;5.37;2.33;;;;;;;29.25;31.81;99936.34;5550741;32;33712;-62
2023/07/20 14:12:59;;;;;;;7.22;2.30;;;;;;;29.13;31.46;99944.41;5550851;32;33664;-62
2023/07/20 14:16:02;;;;;;;5.03;2.30;;;;;;;29.07;31.70;99935.81;5550604;32;33949;-62
2023/07/20 14:19:04;;;;;;;4.80;2.40;;;;;;;29.13;32.35;99941.66;5550972;32;33685;-60
2023/07/20 14:22:07;;;;;;;4.85;2.12;;;;;;;29.12;32.48;99923.53;5550724;32;33638;-60
2023/07/20 14:25:09;;;;;;;5.32;2.45;;;;;;;29.18;32.97;99935.69;5550812;32;33664;-60
2023/07/20 14:28:12;;;;;;;3.47;2.40;;;;;;;29.25;33.04;99927.28;5550628;32;33666;-60
2023/07/20 14:31:14;;;;;;;14.25;2.35;;;;;;;29.42;32.65;99923.44;5550770;32;33895;-60
2023/07/20 14:34:18;;;;;;;6.80;2.17;;;;;;;29.49;33.08;99933.59;5550496;32;33814;-60
2023/07/20 14:37:21;;;;;;;4.43;1.95;;;;;;;29.54;32.50;99924.03;5550812;32;33700;-60
2023/07/20 14:40:23;;;;;;;4.15;2.28;;;;;;;29.60;32.32;99930.66;5550478;32;34373;-60
2023/07/20 14:43:25;;;;;;;5.50;2.20;;;;;;;29.59;32.49;99940.13;5550282;32;34436;-60
2023/07/20 14:46:28;;;;;;;3.55;2.47;;;;;;;29.60;32.38;99933.44;5550514;32;33632;-60
2023/07/20 14:49:31;;;;;;;2.83;2.17;;;;;;;29.54;31.57;99935.88;5550545;32;33580;-60
2023/07/20 14:52:36;;;;;;;;;;;;;;;29.45;32.62;99928.12;5550791;32;33902;-60
2023/07/20 14:55:50;;;;;;;5.30;2.00;;;;;;;29.40;32.24;99928.59;5550615;32;33973;-61
2023/07/20 14:58:52;;;;;;;4.22;2.10;;;;;;;29.42;32.62;99934.50;5550526;32;34346;-60
2023/07/20 15:01:54;;;;;;;4.30;2.20;;;;;;;29.44;32.97;99932.09;5550311;32;34415;-60
2023/07/20 15:04:57;;;;;;;4.35;2.17;;;;;;;29.48;32.37;99945.84;5550516;32;33626;-60
2023/07/20 15:08:00;;;;;;;5.87;2.58;;;;;;;29.39;32.44;99932.56;5550231;32;33804;-60
2023/07/20 15:11:02;;;;;;;4.50;2.10;;;;;;;29.35;33.51;99940.13;5550259;32;33690;-60
2023/07/20 15:14:04;;;;;;;5.12;2.35;;;;;;;29.37;32.03;99934.97;5550053;32;34419;-60
2023/07/20 15:17:07;;;;;;;7.87;2.40;;;;;;;29.39;31.23;99956.63;5550413;32;33729;-60
2023/07/20 15:20:11;;;;;;;7.72;2.40;;;;;;;29.25;31.25;99952.91;5550166;32;33816;-60
2023/07/20 15:23:14;;;;;;;6.17;2.20;;;;;;;29.16;31.61;99949.88;5550496;32;33596;-61
2023/07/20 15:26:16;;;;;;;4.00;2.30;;;;;;;29.12;31.86;99943.62;5550249;32;33688;-60
2023/07/20 15:29:20;;;;;;;3.40;2.35;;;;;;;29.09;32.10;99930.66;5550479;32;33830;-59
2023/07/20 15:32:25;;;;;;;3.10;2.22;;;;;;;29.13;32.47;99923.13;5550020;32;33222;-59
2023/07/20 15:35:28;;;;;;;4.32;2.30;;;;;;;29.11;32.77;99928.28;5550164;32;33752;-60
2023/07/20 15:38:30;;;;;;;7.03;2.05;;;;;;;29.11;32.29;99927.50;5550234;32;34383;-59
2023/07/20 15:41:33;;;;;;;3.67;1.92;;;;;;;29.08;32.13;99937.41;5550105;32;33627;-60
2023/07/20 15:44:36;;;;;;;3.70;1.92;;;;;;;29.06;32.68;99942.53;5550040;32;34283;-59
2023/07/20 15:47:38;;;;;;;4.47;2.08;;;;;;;29.11;32.41;99939.31;5550006;32;34425;-60
2023/07/20 15:50:41;;;;;;;3.30;1.98;;;;;;;29.10;32.42;99946.03;5550160;32;33759;-59
2023/07/20 15:53:44;;;;;;;3.78;2.00;;;;;;;29.07;32.25;99946.84;5548800;32;34322;-59
2023/07/20 15:56:46;;;;;;;8.80;2.40;;;;;;;29.08;31.98;99956.72;5550051;32;34536;-59
2023/07/20 15:59:49;;;;;;;3.12;1.80;;;;;;;29.06;30.99;99945.31;5550044;32;33621;-59
2023/07/20 16:02:51;;;;;;;7.25;1.87;;;;;;;29.05;30.87;99949.28;5550090;32;33847;-60
2023/07/20 16:05:54;;;;;;;3.58;2.15;;;;;;;29.02;31.09;99942.59;5549768;32;33684;-59
2023/07/20 16:08:56;;;;;;;4.35;2.00;;;;;;;28.98;31.25;99952.09;5548713;32;33625;-59
2023/07/20 16:11:58;;;;;;;2.40;1.70;;;;;;;28.92;31.42;99951.00;5549653;32;34419;-59
2023/07/20 16:15:01;;;;;;;4.97;2.08;;;;;;;28.88;31.78;99962.09;5549843;32;33741;-59
2023/07/20 16:18:06;;;;;;;3.70;2.22;;;;;;;28.90;32.18;99942.34;5549673;32;33732;-60
2023/07/20 16:21:09;;;;;;;3.25;2.40;;;;;;;28.88;31.97;99948.31;5549893;32;33696;-59
2023/07/20 16:24:11;;;;;;;5.75;2.20;;;;;;;28.79;32.21;99945.25;5549783;32;33601;-59
2023/07/20 16:27:16;;;;;;;4.40;2.17;;;;;;;28.80;32.86;99949.56;5549831;32;34292;-59
2023/07/20 16:30:18;;;;;;;4.57;1.95;;;;;;;28.84;31.90;99955.84;5549672;32;34324;-59
2023/07/20 16:33:20;;;;;;;3.37;2.10;;;;;;;28.78;32.03;99954.75;5549676;32;33748;-59
2023/07/20 16:36:23;;;;;;;4.07;2.05;;;;;;;28.74;31.41;99960.31;5549429;32;34326;-60
2023/07/20 16:39:25;;;;;;;4.20;2.58;;;;;;;28.68;31.85;99953.69;5549682;32;33677;-60
2023/07/20 16:42:30;;;;;;;5.78;2.05;;;;;;;28.63;32.41;99954.13;5549534;32;33851;-60
2023/07/20 16:45:35;;;;;;;4.37;2.33;;;;;;;28.62;32.64;99955.34;5549529;32;33672;-60
2023/07/20 16:48:38;;;;;;;6.15;2.50;;;;;;;28.57;32.67;99959.31;5549544;32;34076;-60
2023/07/20 16:51:43;;;;;;;6.62;2.45;;;;;;;28.57;33.71;99956.56;5549231;32;33658;-60
2023/07/20 16:54:45;;;;;;;3.95;2.33;;;;;;;28.51;33.21;99946.41;5549361;32;34290;-60
2023/07/20 16:57:47;;;;;;;5.28;2.30;;;;;;;28.56;33.28;99954.22;5549195;32;34353;-60
2023/07/20 17:00:50;;;;;;;4.95;2.10;;;;;;;28.51;34.23;99949.16;5549383;32;33629;-60
2023/07/20 17:03:53;;;;;;;2.78;2.05;;;;;;;28.43;33.82;99950.44;5549177;32;33297;-60
2023/07/20 17:06:58;;;;;;;4.47;2.33;;;;;;;28.44;34.18;99947.28;5549166;32;34439;-60
2023/07/20 17:10:01;;;;;;;6.15;2.45;;;;;;;28.37;33.74;99943.78;5548635;32;34259;-60
2023/07/20 17:13:04;;;;;;;6.32;2.72;;;;;;;28.34;33.92;99946.19;5548793;32;33629;-60
2023/07/20 17:16:07;;;;;;;5.85;2.60;;;;;;;28.47;33.93;99945.66;5548735;32;34451;-59
2023/07/20 17:19:09;;;;;;;5.20;2.37;;;;;;;28.40;34.19;99948.50;5548915;32;33567;-60
2023/07/20 17:22:12;;;;;;;4.15;2.55;;;;;;;28.42;33.85;99957.16;5548559;32;33652;-60
2023/07/20 17:25:14;;;;;;;5.22;2.28;;;;;;;28.34;34.23;99946.19;5548879;32;33731;-60
2023/07/20 17:28:19;;;;;;;3.92;2.15;;;;;;;28.35;33.87;99958.00;5548628;32;34345;-60
2023/07/20 17:31:28;;;;;;;5.10;2.20;;;;;;;28.27;34.73;99967.53;5548637;32;33581;-60
2023/07/20 17:34:30;;;;;;;3.70;2.12;;;;;;;28.27;34.54;99973.81;5548591;32;33679;-60
2023/07/20 17:37:33;;;;;;;3.97;2.78;;;;;;;28.19;34.83;99977.09;5548412;32;33707;-60
2023/07/20 17:40:38;;;;;;;5.80;2.42;;;;;;;28.22;34.93;99970.75;5548565;32;34080;-60
2023/07/20 17:43:40;;;;;;;6.53;2.85;;;;;;;28.10;35.03;99975.56;5548421;32;33628;-61
2023/07/20 17:46:42;;;;;;;5.65;2.10;;;;;;;28.05;35.35;99978.00;5548567;32;33735;-60
2023/07/20 17:49:48;;;;;;;;;;;;;;;28.09;35.31;99979.53;5548623;32;34395;-62
2023/07/20 17:52:50;;;;;;;4.10;2.50;;;;;;;28.00;35.90;99979.22;5548217;32;33939;-62
2023/07/20 17:55:53;;;;;;;6.30;2.12;;;;;;;28.10;35.12;99969.28;5547895;32;33676;-62
2023/07/20 17:58:55;;;;;;;5.20;2.60;;;;;;;27.98;35.90;99978.06;5548300;32;33416;-62
2023/07/20 18:01:57;;;;;;;6.18;2.67;;;;;;;27.95;35.88;99985.19;5547874;32;33632;-62
2023/07/20 18:05:00;;;;;;;4.03;2.75;;;;;;;27.90;35.73;99980.09;5548141;32;33700;-62
2023/07/20 18:08:02;;;;;;;4.45;2.50;;;;;;;27.98;35.63;99975.31;5548052;32;33756;-62
2023/07/20 18:11:05;;;;;;;4.47;2.30;;;;;;;27.91;36.36;99981.66;5547951;32;33747;-62
2023/07/20 18:14:08;;;;;;;8.35;2.65;;;;;;;27.92;36.58;99985.22;5547611;32;33814;-62
2023/07/20 18:17:10;;;;;;;5.60;2.33;;;;;;;27.98;35.81;99984.38;5549326;32;33653;-62
2023/07/20 18:20:12;;;;;;;3.62;2.20;;;;;;;27.95;36.39;99978.91;5550524;32;33852;-62
2023/07/20 18:23:16;;;;;;;3.65;2.28;;;;;;;27.88;36.51;99985.22;5550659;32;34339;-62
2023/07/20 18:26:18;;;;;;;7.30;2.60;;;;;;;27.86;38.21;99979.38;5550590;32;33890;-62
2023/07/20 18:29:21;;;;;;;4.55;2.53;;;;;;;27.88;36.65;99976.97;5550695;32;33665;-62
2023/07/20 18:32:25;;;;;;;8.70;3.15;;;;;;;27.84;37.30;99979.75;5550215;32;33692;-62
2023/07/20 18:35:29;;;;;;;4.05;2.95;;;;;;;27.80;38.00;99986.50;5550516;32;33775;-62
2023/07/20 18:38:33;;;;;;;4.60;2.80;;;;;;;27.79;37.56;99991.22;5550715;32;34394;-62
2023/07/20 18:41:35;;;;;;;6.43;2.70;;;;;;;27.66;37.31;99983.84;5550399;32;34410;-62
2023/07/20 18:44:38;;;;;;;5.03;2.50;;;;;;;27.58;37.62;99992.16;5550411;32;33375;-62
2023/07/20 18:47:40;;;;;;;3.97;2.30;;;;;;;27.60;38.43;99992.53;5550337;32;34331;-62
2023/07/20 18:50:42;;;;;;;4.93;3.00;;;;;;;27.51;39.03;99994.16;5550498;32;33741;-62
2023/07/20 18:53:45;;;;;;;5.72;3.00;;;;;;;27.45;39.47;100009.56;5550130;32;33612;-62
2023/07/20 18:56:47;;;;;;;6.03;2.58;;;;;;;27.51;38.06;100008.72;5550537;32;33745;-62
2023/07/20 18:59:50;;;;;;;4.15;2.67;;;;;;;27.46;37.74;100009.16;5550379;32;33751;-59
2023/07/20 19:02:52;;;;;;;7.75;2.78;;;;;;;27.39;38.47;100014.72;5550302;32;33700;-59
2023/07/20 19:05:56;;;;;;;5.57;2.80;;;;;;;27.43;38.51;100015.47;5549024;32;33717;-59
2023/07/20 19:08:58;;;;;;;9.60;2.75;;;;;;;27.45;38.14;100017.81;5549922;32;34408;-59
2023/07/20 19:12:01;;;;;;;5.68;2.80;;;;;;;27.38;38.21;100027.69;5550064;32;34365;-59
2023/07/20 19:15:03;;;;;;;5.25;2.40;;;;;;;27.35;38.38;100025.75;5550125;32;33709;-59
2023/07/20 19:18:06;;;;;;;3.85;2.65;;;;;;;27.27;38.94;100031.69;5550243;32;34311;-61
2023/07/20 19:21:08;;;;;;;6.90;2.60;;;;;;;27.28;39.10;100038.75;5550153;32;34328;-59
2023/07/20 19:24:11;;;;;;;4.57;2.45;;;;;;;27.27;38.77;100040.72;5550017;32;34521;-59
2023/07/20 19:27:14;;;;;;;4.57;2.40;;;;;;;27.20;41.65;100040.78;5550204;32;33677;-59
2023/07/20 19:30:16;;;;;;;7.53;2.83;;;;;;;27.13;40.62;100054.56;5549943;32;34397;-59
2023/07/20 19:33:19;;;;;;;9.43;2.90;;;;;;;27.13;39.64;100057.31;5549949;32;34463;-59
2023/07/20 19:36:21;;;;;;;6.35;2.78;;;;;;;27.08;39.45;100063.19;5549841;32;33626;-60